createdAt,value
2018-05-25T00:00:56.912Z,67.45
2018-05-25T00:03:25.437Z,67.88
2018-05-25T00:05:53.949Z,67.48
2018-05-25T00:08:22.517Z,67.27
2018-05-25T00:10:51.016Z,67.31
2018-05-25T00:13:19.499Z,67.29
2018-05-25T00:15:48.053Z,67.21
2018-05-25T00:18:16.552Z,67.27
2018-05-25T00:20:45.072Z,67.14
2018-05-25T00:23:13.573Z,66.98
2018-05-25T00:25:42.101Z,66.86
2018-05-25T00:28:10.605Z,66.76
2018-05-25T00:30:39.097Z,66.39
2018-05-25T00:33:07.614Z,66.29
2018-05-25T00:35:36.104Z,66.45
2018-05-25T00:38:04.623Z,65.96
2018-05-25T00:40:33.099Z,65.70
2018-05-25T00:43:01.630Z,66.26
2018-05-25T00:45:30.111Z,66.51
2018-05-25T00:47:58.685Z,66.47
2018-05-25T00:50:27.314Z,66.60
2018-05-25T00:52:55.771Z,66.74
2018-05-25T00:55:36.027Z,66.75
2018-05-25T00:58:04.521Z,67.04
2018-05-25T01:00:33.079Z,67.09
2018-05-25T01:03:01.615Z,67.14
2018-05-25T01:05:30.138Z,66.86
2018-05-25T01:07:58.612Z,66.85
2018-05-25T01:10:27.089Z,66.79
2018-05-25T01:12:55.685Z,66.85
2018-05-25T01:15:24.200Z,67.21
2018-05-25T01:17:52.681Z,67.28
2018-05-25T01:20:21.200Z,67.68
2018-05-25T01:22:49.672Z,67.68
2018-05-25T01:25:18.208Z,67.67
2018-05-25T01:27:46.729Z,67.72
2018-05-25T01:30:15.212Z,67.86
2018-05-25T01:32:43.707Z,68.01
2018-05-25T01:35:12.176Z,67.90
2018-05-25T01:37:40.700Z,67.84
2018-05-25T01:40:09.188Z,68.09
2018-05-25T01:42:37.664Z,68.50
2018-05-25T01:45:06.217Z,68.44
2018-05-25T01:47:34.689Z,68.56
2018-05-25T01:50:03.260Z,69.00
2018-05-25T01:52:31.744Z,69.05
2018-05-25T01:55:00.225Z,69.11
2018-05-25T01:57:28.756Z,69.01
2018-05-25T01:59:57.265Z,69.06
2018-05-25T02:02:25.738Z,69.18
2018-05-25T02:04:54.273Z,69.21
2018-05-25T02:07:22.784Z,69.10
2018-05-25T02:09:51.296Z,68.97
2018-05-25T02:12:19.808Z,69.06
2018-05-25T02:14:48.304Z,69.40
2018-05-25T02:17:16.817Z,69.06
2018-05-25T02:19:45.337Z,68.91
2018-05-25T02:22:13.817Z,68.96
2018-05-25T02:24:42.301Z,68.78
2018-05-25T02:27:10.786Z,68.99
2018-05-25T02:29:39.264Z,68.88
2018-05-25T02:32:07.787Z,68.79
2018-05-25T02:34:36.297Z,69.10
2018-05-25T02:37:04.844Z,68.79
2018-05-25T02:39:33.324Z,68.95
2018-05-25T02:42:01.860Z,68.99
2018-05-25T02:44:30.374Z,69.10
2018-05-25T02:46:58.876Z,69.14
2018-05-25T02:49:27.393Z,69.07
2018-05-25T02:51:55.917Z,68.99
2018-05-25T02:54:24.496Z,68.89
2018-05-25T02:56:52.982Z,68.70
2018-05-25T02:59:21.501Z,68.44
2018-05-25T03:01:50.003Z,68.34
2018-05-25T03:04:18.524Z,68.52
2018-05-25T03:06:47.020Z,68.32
2018-05-25T03:09:15.536Z,68.67
2018-05-25T03:11:44.021Z,68.26
2018-05-25T03:14:12.588Z,68.16
2018-05-25T03:16:41.076Z,68.17
2018-05-25T03:19:09.571Z,67.75
2018-05-25T03:21:38.052Z,67.91
2018-05-25T03:24:06.576Z,67.84
2018-05-25T03:26:35.069Z,67.43
2018-05-25T03:29:03.610Z,67.32
2018-05-25T03:31:32.128Z,67.18
2018-05-25T03:34:00.623Z,66.95
2018-05-25T03:36:29.108Z,66.73
2018-05-25T03:38:57.625Z,66.54
2018-05-25T03:41:26.150Z,66.43
2018-05-25T03:43:54.664Z,66.18
2018-05-25T03:46:23.184Z,65.79
2018-05-25T03:48:51.696Z,65.10
2018-05-25T03:51:20.217Z,64.85
2018-05-25T03:53:48.734Z,64.47
2018-05-25T03:56:17.208Z,64.37
2018-05-25T03:58:57.262Z,64.46
2018-05-25T04:01:37.518Z,64.33
2018-05-25T04:04:06.969Z,64.00
2018-05-25T04:06:35.542Z,64.02
2018-05-25T04:09:04.180Z,64.09
2018-05-25T04:11:32.652Z,63.70
2018-05-25T04:14:01.145Z,63.91
2018-05-25T04:16:29.664Z,63.85
2018-05-25T04:18:58.141Z,63.58
2018-05-25T04:21:26.661Z,63.52
2018-05-25T04:23:55.197Z,63.50
2018-05-25T04:26:23.685Z,63.96
2018-05-25T04:28:52.416Z,63.79
2018-05-25T04:31:20.958Z,63.50
2018-05-25T04:33:49.436Z,63.15
2018-05-25T04:36:17.964Z,62.94
2018-05-25T04:38:46.497Z,62.70
2018-05-25T04:41:14.973Z,62.64
2018-05-25T04:43:43.479Z,62.66
2018-05-25T04:46:12.001Z,62.32
2018-05-25T04:48:40.490Z,61.85
2018-05-25T04:51:09.029Z,60.96
2018-05-25T04:53:37.512Z,60.22
2018-05-25T04:56:06.052Z,60.52
2018-05-25T04:58:34.567Z,60.47
2018-05-25T05:01:03.081Z,60.48
2018-05-25T05:03:31.597Z,60.38
2018-05-25T05:06:00.136Z,60.00
2018-05-25T05:08:28.840Z,59.60
2018-05-25T05:10:57.592Z,59.58
2018-05-25T05:13:26.116Z,59.27
2018-05-25T05:15:54.650Z,57.76
2018-05-25T05:18:23.136Z,57.02
2018-05-25T05:20:51.662Z,56.78
2018-05-25T05:23:20.141Z,55.75
2018-05-25T05:25:48.680Z,55.97
2018-05-25T05:28:17.293Z,55.11
2018-05-25T05:30:45.932Z,54.36
2018-05-25T05:33:14.601Z,53.03
2018-05-25T05:35:44.093Z,52.96
2018-05-25T05:38:12.727Z,52.19
2018-05-25T05:40:41.355Z,50.75
2018-05-25T05:43:09.989Z,50.72
2018-05-25T05:45:38.605Z,50.27
2018-05-25T05:48:07.953Z,49.24
2018-05-25T05:50:36.631Z,49.44
2018-05-25T05:53:05.251Z,49.36
2018-05-25T05:55:33.918Z,50.02
2018-05-25T05:58:02.457Z,48.65
2018-05-25T06:00:31.025Z,49.11
2018-05-25T06:02:59.706Z,47.29
2018-05-25T06:05:28.805Z,46.29
2018-05-25T06:07:57.365Z,45.54
2018-05-25T06:10:25.987Z,44.40
2018-05-25T06:12:54.650Z,43.68
2018-05-25T06:15:23.341Z,43.93
2018-05-25T06:17:52.067Z,44.34
2018-05-25T06:20:20.674Z,42.12
2018-05-25T06:22:49.444Z,42.66
2018-05-25T06:25:18.056Z,42.56
2018-05-25T06:27:46.657Z,42.89
2018-05-25T06:30:32.452Z,41.77
2018-05-25T06:33:06.852Z,41.41
2018-05-25T06:35:35.348Z,42.11
2018-05-25T06:38:03.857Z,42.18
2018-05-25T06:40:32.433Z,40.66
2018-05-25T06:43:00.917Z,40.68
2018-05-25T06:45:29.404Z,41.69
2018-05-25T06:47:57.944Z,41.05
2018-05-25T06:50:26.422Z,41.07
2018-05-25T06:52:54.946Z,39.76
2018-05-25T06:55:23.470Z,40.64
2018-05-25T06:57:51.993Z,40.30
2018-05-25T07:00:20.509Z,39.28
2018-05-25T07:02:48.996Z,39.30
2018-05-25T07:05:17.520Z,39.00
2018-05-25T07:07:45.996Z,39.94
2018-05-25T07:10:14.505Z,39.72
2018-05-25T07:12:42.973Z,39.91
2018-05-25T07:15:11.431Z,39.93
2018-05-25T07:17:40.048Z,40.55
2018-05-25T07:20:08.573Z,40.79
2018-05-25T07:22:37.114Z,40.35
2018-05-25T07:25:05.626Z,39.63
2018-05-25T07:27:34.130Z,39.86
2018-05-25T07:30:02.696Z,39.09
2018-05-25T07:32:31.188Z,40.07
2018-05-25T07:34:59.715Z,38.25
2018-05-25T07:37:28.204Z,38.74
2018-05-25T07:39:56.764Z,39.86
2018-05-25T07:42:25.284Z,40.90
2018-05-25T07:44:53.800Z,40.43
2018-05-25T07:47:22.281Z,40.15
2018-05-25T07:49:50.847Z,40.12
2018-05-25T07:52:19.330Z,39.99
2018-05-25T07:54:47.848Z,39.85
2018-05-25T07:57:16.387Z,40.13
2018-05-25T07:59:44.928Z,40.03
2018-05-25T08:02:13.400Z,41.14
2018-05-25T08:04:41.884Z,40.90
2018-05-25T08:07:10.403Z,42.24
2018-05-25T08:09:38.876Z,44.89
2018-05-25T08:12:07.425Z,47.64
2018-05-25T08:14:35.932Z,48.01
2018-05-25T08:17:04.449Z,48.64
2018-05-25T08:19:32.930Z,49.44
2018-05-25T08:22:01.483Z,48.00
2018-05-25T08:24:29.990Z,43.62
2018-05-25T08:26:58.505Z,42.73
2018-05-25T08:29:27.025Z,42.78
2018-05-25T08:31:55.508Z,43.35
2018-05-25T08:34:24.025Z,42.03
2018-05-25T08:36:52.546Z,43.04
2018-05-25T08:39:21.073Z,43.43
2018-05-25T08:41:49.561Z,43.70
2018-05-25T08:44:18.109Z,41.30
2018-05-25T08:46:46.656Z,40.76
2018-05-25T08:49:15.181Z,41.25
2018-05-25T08:51:43.723Z,42.28
2018-05-25T08:54:12.202Z,42.44
2018-05-25T08:56:40.750Z,42.62
2018-05-25T08:59:09.267Z,45.31
2018-05-25T09:01:37.772Z,46.23
2018-05-25T09:04:06.257Z,47.67
2018-05-25T09:06:34.814Z,48.76
2018-05-25T09:09:03.425Z,49.54
2018-05-25T09:11:31.992Z,50.03
2018-05-25T09:14:00.520Z,50.65
2018-05-25T09:16:29.036Z,51.65
2018-05-25T09:18:57.541Z,52.08
2018-05-25T09:21:26.081Z,52.75
2018-05-25T09:23:54.592Z,52.05
2018-05-25T09:26:23.192Z,51.85
2018-05-25T09:28:51.760Z,52.17
2018-05-25T09:31:20.245Z,52.57
2018-05-25T09:33:48.863Z,50.76
2018-05-25T09:36:17.362Z,51.62
2018-05-25T09:38:45.872Z,50.31
2018-05-25T09:41:14.380Z,49.34
2018-05-25T09:43:42.936Z,49.46
2018-05-25T09:46:11.449Z,49.46
2018-05-25T09:48:39.932Z,46.81
2018-05-25T09:51:08.452Z,46.42
2018-05-25T09:53:36.928Z,43.72
2018-05-25T09:56:05.446Z,42.18
2018-05-25T09:58:33.944Z,41.90
2018-05-25T10:01:02.477Z,41.54
2018-05-25T10:03:30.984Z,40.57
2018-05-25T10:05:59.461Z,40.84
2018-05-25T10:08:28.004Z,41.34
2018-05-25T10:10:56.604Z,39.44
2018-05-25T10:13:25.112Z,39.87
2018-05-25T10:15:53.590Z,38.89
2018-05-25T10:18:22.117Z,38.11
2018-05-25T10:20:50.599Z,39.39
2018-05-25T10:23:19.080Z,38.35
2018-05-25T10:25:47.696Z,38.39
2018-05-25T10:28:16.241Z,37.35
2018-05-25T10:30:44.732Z,38.47
2018-05-25T10:33:13.206Z,38.63
2018-05-25T10:35:41.740Z,37.95
2018-05-25T10:38:10.225Z,37.32
2018-05-25T10:40:38.748Z,37.79
2018-05-25T10:43:07.264Z,37.40
2018-05-25T10:45:35.754Z,37.89
2018-05-25T10:48:04.268Z,39.05
2018-05-25T10:50:32.777Z,38.80
2018-05-25T10:53:01.257Z,39.46
2018-05-25T10:55:29.815Z,38.67
2018-05-25T10:57:58.285Z,38.51
2018-05-25T11:00:26.806Z,38.33
2018-05-25T11:02:55.366Z,38.44
2018-05-25T11:05:23.843Z,38.25
2018-05-25T11:07:52.358Z,35.87
2018-05-25T11:10:20.828Z,37.26
2018-05-25T11:12:49.308Z,36.28
2018-05-25T11:15:17.821Z,37.17
2018-05-25T11:17:46.376Z,36.14
2018-05-25T11:20:14.877Z,35.05
2018-05-25T11:22:43.394Z,35.45
2018-05-25T11:25:11.904Z,35.91
2018-05-25T11:27:40.388Z,35.29
2018-05-25T11:30:08.921Z,34.57
2018-05-25T11:32:37.466Z,33.68
2018-05-25T11:35:06.010Z,35.14
2018-05-25T11:37:34.588Z,33.95
2018-05-25T11:40:03.165Z,34.24
2018-05-25T11:42:31.684Z,34.11
2018-05-25T11:45:00.272Z,33.54
2018-05-25T11:47:29.701Z,33.50
2018-05-25T11:49:58.240Z,33.73
2018-05-25T11:52:26.776Z,33.22
2018-05-25T11:54:56.919Z,33.83
2018-05-25T11:57:25.717Z,33.53
2018-05-25T11:59:56.035Z,34.65
2018-05-25T12:02:25.434Z,33.50
2018-05-25T12:04:53.963Z,33.49
2018-05-25T12:07:23.452Z,33.84
2018-05-25T12:09:52.125Z,33.71
2018-05-25T12:12:20.665Z,33.16
2018-05-25T12:14:49.218Z,33.03
2018-05-25T12:17:17.798Z,32.81
2018-05-25T12:19:46.329Z,33.29
2018-05-25T12:22:14.856Z,34.00
2018-05-25T12:24:44.035Z,33.74
2018-05-25T12:27:12.577Z,33.14
2018-05-25T12:29:41.052Z,32.83
2018-05-25T12:32:09.553Z,33.73
2018-05-25T12:34:38.078Z,33.42
2018-05-25T12:37:06.646Z,33.74
2018-05-25T12:39:35.136Z,33.22
2018-05-25T12:42:03.676Z,34.33
2018-05-25T12:47:31.148Z,33.92
2018-05-25T12:49:59.616Z,33.80
2018-05-25T12:52:28.125Z,33.56
2018-05-25T12:54:56.578Z,33.19
2018-05-25T12:57:25.084Z,32.64
2018-05-25T12:59:53.613Z,32.96
2018-05-25T13:02:22.232Z,32.84
2018-05-25T13:04:50.868Z,33.19
2018-05-25T13:07:19.469Z,32.51
2018-05-25T13:09:47.995Z,33.60
2018-05-25T13:12:16.521Z,33.71
2018-05-25T13:14:45.005Z,31.79
2018-05-25T13:17:14.260Z,32.54
2018-05-25T13:19:42.792Z,32.97
2018-05-25T13:22:11.300Z,34.44
2018-05-25T13:24:40.648Z,35.02
2018-05-25T13:27:09.156Z,35.77
2018-05-25T13:29:37.904Z,37.38
2018-05-25T13:32:06.544Z,37.40
2018-05-25T13:34:35.453Z,37.49
2018-05-25T13:37:03.977Z,37.27
2018-05-25T13:39:32.489Z,37.27
2018-05-25T13:42:01.009Z,37.28
2018-05-25T13:44:29.493Z,37.37
2018-05-25T13:46:57.971Z,39.18
2018-05-25T13:49:26.477Z,40.80
2018-05-25T13:51:54.961Z,44.50
2018-05-25T13:54:23.525Z,51.25
2018-05-25T13:56:52.033Z,53.59
2018-05-25T13:59:20.533Z,63.10
2018-05-25T14:01:49.066Z,66.86
2018-05-25T14:04:17.571Z,64.36
2018-05-25T14:06:46.061Z,67.79
2018-05-25T14:09:14.577Z,69.93
2018-05-25T14:11:43.523Z,69.96
2018-05-25T14:14:12.036Z,68.51
2018-05-25T14:16:40.505Z,70.55
2018-05-25T14:19:09.020Z,73.19
2018-05-25T14:21:37.504Z,70.34
2018-05-25T14:24:06.040Z,71.67
2018-05-25T14:26:34.565Z,72.19
2018-05-25T14:29:03.113Z,74.98
2018-05-25T14:31:31.675Z,72.17
2018-05-25T14:34:00.172Z,71.30
2018-05-25T14:36:28.689Z,71.46
2018-05-25T14:38:57.205Z,70.93
2018-05-25T14:41:25.697Z,70.95
2018-05-25T14:43:54.267Z,70.01
2018-05-25T14:46:22.749Z,67.66
2018-05-25T14:48:51.260Z,65.36
2018-05-25T14:51:20.443Z,67.43
2018-05-25T14:53:48.969Z,68.23
2018-05-25T14:56:17.532Z,68.91
2018-05-25T14:58:46.042Z,69.11
2018-05-25T15:01:14.556Z,69.67
2018-05-25T15:03:43.054Z,69.84
2018-05-25T15:06:11.568Z,71.08
2018-05-25T15:08:40.040Z,71.29
2018-05-25T15:11:08.566Z,70.34
2018-05-25T15:13:37.113Z,70.71
2018-05-25T15:16:05.661Z,68.53
2018-05-25T15:18:34.140Z,68.79
2018-05-25T15:21:02.668Z,70.08
2018-05-25T15:23:31.281Z,71.78
2018-05-25T15:25:59.785Z,71.81
2018-05-25T15:28:28.305Z,72.84
2018-05-25T15:30:56.963Z,73.28
2018-05-25T15:33:25.320Z,72.81
2018-05-25T15:35:53.844Z,72.43
2018-05-25T15:38:22.309Z,72.20
2018-05-25T15:40:50.800Z,71.58
2018-05-25T15:43:19.330Z,69.79
2018-05-25T15:45:47.828Z,71.05
2018-05-25T15:48:16.340Z,70.59
2018-05-25T15:50:44.856Z,70.51
2018-05-25T15:53:13.313Z,69.83
2018-05-25T15:55:41.805Z,69.20
2018-05-25T15:58:10.257Z,69.03
2018-05-25T16:00:38.798Z,71.59
2018-05-25T16:03:07.282Z,71.45
2018-05-25T16:05:35.800Z,71.36
2018-05-25T16:08:04.322Z,71.91
2018-05-25T16:10:32.780Z,70.98
2018-05-25T16:13:01.258Z,70.10
2018-05-25T16:15:29.756Z,70.52
2018-05-25T16:17:58.248Z,71.16
2018-05-25T16:20:26.701Z,71.35
2018-05-25T16:22:55.340Z,71.81
2018-05-25T16:25:23.860Z,71.53
2018-05-25T16:27:52.358Z,71.27
2018-05-25T16:30:20.834Z,71.41
2018-05-25T16:32:49.328Z,70.63
2018-05-25T16:35:17.835Z,70.88
2018-05-25T16:37:46.351Z,73.43
2018-05-25T16:40:14.869Z,71.22
2018-05-25T16:42:43.404Z,70.60
2018-05-25T16:45:11.900Z,71.01
2018-05-25T16:47:40.381Z,71.00
2018-05-25T16:50:08.847Z,71.34
2018-05-25T16:52:37.360Z,70.36
2018-05-25T16:55:05.869Z,70.49
2018-05-25T16:57:34.337Z,70.54
2018-05-25T17:00:02.884Z,70.54
2018-05-25T17:02:31.412Z,71.36
2018-05-25T17:04:59.891Z,70.60
2018-05-25T17:07:28.376Z,70.27
2018-05-25T17:09:56.829Z,70.82
2018-05-25T17:12:25.353Z,71.03
2018-05-25T17:14:53.866Z,71.72
2018-05-25T17:17:22.315Z,70.42
2018-05-25T17:19:50.801Z,70.04
2018-05-25T17:22:19.347Z,70.17
2018-05-25T17:24:47.819Z,70.74
2018-05-25T17:27:16.339Z,71.35
2018-05-25T17:29:44.825Z,71.34
2018-05-25T17:32:13.319Z,72.03
2018-05-25T17:34:41.816Z,71.92
2018-05-25T17:37:10.308Z,72.51
2018-05-25T17:39:38.842Z,72.62
2018-05-25T17:42:07.401Z,73.11
2018-05-25T17:44:35.848Z,73.43
2018-05-25T17:47:04.344Z,73.32
2018-05-25T17:49:32.844Z,73.33
2018-05-25T17:52:01.327Z,73.52
2018-05-25T17:54:29.816Z,73.89
2018-05-25T17:56:58.316Z,73.81
2018-05-25T17:59:26.794Z,73.80
2018-05-25T18:01:55.284Z,73.85
2018-05-25T18:04:23.768Z,73.90
2018-05-25T18:06:52.353Z,73.99
2018-05-25T18:09:20.769Z,74.06
2018-05-25T18:11:49.234Z,74.29
2018-05-25T18:14:17.717Z,74.52
2018-05-25T18:16:46.169Z,74.52
2018-05-25T18:19:14.690Z,74.46
2018-05-25T18:21:43.190Z,74.87
2018-05-25T18:24:11.652Z,75.39
2018-05-25T18:26:40.164Z,75.16
2018-05-25T18:29:08.654Z,75.41
2018-05-25T18:31:37.156Z,75.30
2018-05-25T18:34:05.617Z,75.57
2018-05-25T18:36:34.091Z,75.13
2018-05-25T18:39:02.550Z,75.21
2018-05-25T18:41:31.061Z,75.34
2018-05-25T18:43:59.560Z,75.35
2018-05-25T18:46:28.030Z,75.96
2018-05-25T18:48:56.523Z,75.33
2018-05-25T18:51:25.012Z,75.49
2018-05-25T18:54:05.173Z,75.78
2018-05-25T18:56:33.676Z,76.33
2018-05-25T18:59:02.142Z,75.91
2018-05-25T19:01:30.668Z,75.89
2018-05-25T19:03:59.161Z,75.60
2018-05-25T19:06:27.616Z,75.98
2018-05-25T19:08:56.116Z,76.32
2018-05-25T19:11:24.596Z,76.18
2018-05-25T19:13:53.095Z,75.92
2018-05-25T19:16:21.576Z,75.89
2018-05-25T19:18:50.029Z,75.22
2018-05-25T19:21:18.524Z,74.30
2018-05-25T19:23:46.995Z,74.27
2018-05-25T19:26:15.448Z,74.34
2018-05-25T19:28:43.905Z,74.30
2018-05-25T19:31:12.396Z,74.01
2018-05-25T19:33:40.845Z,73.88
2018-05-25T19:36:09.321Z,73.91
2018-05-25T19:38:37.822Z,73.85
2018-05-25T19:41:06.292Z,74.03
2018-05-25T19:43:34.778Z,74.38
2018-05-25T19:46:03.236Z,73.78
2018-05-25T19:48:31.718Z,73.42
2018-05-25T19:51:00.176Z,73.26
2018-05-25T19:53:28.660Z,73.43
2018-05-25T19:55:57.166Z,73.38
2018-05-25T19:58:25.620Z,73.79
2018-05-25T20:00:54.108Z,73.63
2018-05-25T20:03:22.602Z,73.50
2018-05-25T20:05:51.108Z,73.23
2018-05-25T20:08:19.568Z,73.18
2018-05-25T20:10:48.044Z,73.07
2018-05-25T20:13:16.573Z,72.76
2018-05-25T20:15:45.039Z,72.78
2018-05-25T20:18:13.474Z,72.53
2018-05-25T20:20:41.944Z,72.67
2018-05-25T20:23:10.404Z,73.09
2018-05-25T20:25:38.934Z,72.96
2018-05-25T20:28:07.429Z,73.49
2018-05-25T20:30:35.924Z,73.27
2018-05-25T20:33:04.377Z,72.93
2018-05-25T20:35:32.881Z,73.32
2018-05-25T20:38:01.339Z,73.27
2018-05-25T20:40:29.832Z,73.89
2018-05-25T20:42:58.337Z,73.88
2018-05-25T20:45:26.796Z,74.54
2018-05-25T20:47:55.260Z,74.54
2018-05-25T20:50:23.750Z,74.09
2018-05-25T20:52:52.253Z,74.29
2018-05-25T20:55:20.742Z,74.61
2018-05-25T20:57:49.196Z,74.54
2018-05-25T21:00:17.692Z,74.75
2018-05-25T21:02:46.158Z,75.10
2018-05-25T21:05:14.649Z,74.62
2018-05-25T21:07:43.104Z,74.00
2018-05-25T21:10:11.592Z,73.85
2018-05-25T21:12:40.091Z,74.11
2018-05-25T21:15:08.610Z,74.04
2018-05-25T21:17:37.074Z,73.90
2018-05-25T21:20:05.616Z,73.81
2018-05-25T21:22:34.143Z,73.51
2018-05-25T21:25:02.647Z,72.99
2018-05-25T21:27:31.145Z,72.96
2018-05-25T21:29:59.642Z,72.77
2018-05-25T21:32:28.140Z,73.03
2018-05-25T21:34:56.588Z,72.60
2018-05-25T21:37:25.085Z,72.52
2018-05-25T21:39:53.561Z,72.88
2018-05-25T21:42:22.039Z,72.94
2018-05-25T21:44:50.528Z,72.15
2018-05-25T21:47:18.980Z,71.97
2018-05-25T21:49:47.472Z,72.10
2018-05-25T21:52:15.964Z,72.40
2018-05-25T21:54:44.449Z,71.98
2018-05-25T21:57:12.904Z,72.16
2018-05-25T21:59:42.044Z,72.64
2018-05-25T22:02:10.549Z,72.57
2018-05-25T22:04:39.117Z,72.71
2018-05-25T22:07:07.570Z,72.96
2018-05-25T22:09:36.089Z,72.99
2018-05-25T22:12:04.557Z,73.27
2018-05-25T22:14:33.060Z,73.34
2018-05-25T22:17:01.513Z,73.42
2018-05-25T22:19:29.981Z,73.00
2018-05-25T22:21:58.511Z,72.94
2018-05-25T22:24:27.014Z,72.74
2018-05-25T22:26:55.468Z,72.39
2018-05-25T22:29:23.993Z,72.29
2018-05-25T22:31:52.485Z,72.26
2018-05-25T22:34:20.973Z,72.12
2018-05-25T22:36:49.424Z,71.59
2018-05-25T22:39:17.877Z,71.64
2018-05-25T22:41:57.685Z,71.62
2018-05-25T22:44:37.445Z,71.41
2018-05-25T22:47:23.444Z,71.25
2018-05-25T22:50:09.592Z,70.80
2018-05-25T22:52:48.710Z,71.11
2018-05-25T22:55:16.957Z,70.63
2018-05-25T22:57:45.460Z,70.46
2018-05-25T23:00:13.969Z,70.04
2018-05-25T23:02:42.481Z,70.00
2018-05-25T23:05:11.001Z,69.86
2018-05-25T23:07:39.505Z,69.96
2018-05-25T23:10:08.000Z,70.42
2018-05-25T23:12:36.540Z,69.91
2018-05-25T23:15:05.030Z,68.87
2018-05-25T23:17:33.536Z,68.66
2018-05-25T23:20:02.056Z,67.95
2018-05-25T23:22:30.541Z,67.49
2018-05-25T23:24:59.049Z,67.29
2018-05-25T23:27:27.540Z,67.28
2018-05-25T23:29:56.024Z,66.86
2018-05-25T23:32:24.516Z,66.66
2018-05-25T23:34:53.021Z,66.87
2018-05-25T23:37:21.488Z,66.63
2018-05-25T23:39:50.010Z,66.36
2018-05-25T23:42:18.481Z,66.12
2018-05-25T23:44:46.983Z,66.42
2018-05-25T23:47:15.490Z,66.27
2018-05-25T23:49:44.000Z,66.17
2018-05-25T23:52:12.464Z,65.85
2018-05-25T23:54:40.960Z,66.21
2018-05-25T23:57:09.468Z,66.03
2018-05-25T23:59:37.932Z,66.17
